RYR56Q LATI-LOWW
Flight info
| Callsign | RYR56Q |
|---|---|
| Flight time | 1h 17m |
| Altitude | 34000 |
| Route | INLOT2R INLOT DCT RETRA DCT OBUTI OBUTI2W |
| Aircraft | A320/M-SDE3FGHIRWY/LB1 |
Departure
| Time | 2026-04-26 19:36 |
|---|---|
| Airport | Tirana International Airport Mother Teresa (LATI) |
Arrival
| Time | 2026-04-26 20:53 |
|---|---|
| Airport | Vienna International Airport (LOWW) |
| Time | Latitude | Longitude | Altitude | Speed | Heading |
|---|---|---|---|---|---|
| 2026-04-26 19:01 | 41.41949 | 19.71515 | 122 ft | 0 kts | 264° |
| 2026-04-26 19:27 | 41.41950 | 19.71525 | 108 ft | 2 kts | 264° |
| 2026-04-26 19:27 | 41.41949 | 19.71548 | 114 ft | 2 kts | 290° |
| 2026-04-26 19:27 | 41.41942 | 19.71569 | 126 ft | 2 kts | 320° |
| 2026-04-26 19:28 | 41.41927 | 19.71581 | 117 ft | 2 kts | 343° |
| 2026-04-26 19:28 | 41.41911 | 19.71585 | 120 ft | 0 kts | 359° |
| 2026-04-26 19:28 | 41.41912 | 19.71585 | 120 ft | 0 kts | 359° |
| 2026-04-26 19:31 | 41.41930 | 19.71584 | 117 ft | 7 kts | 356° |
| 2026-04-26 19:31 | 41.41998 | 19.71575 | 119 ft | 10 kts | 354° |
| 2026-04-26 19:31 | 41.42068 | 19.71565 | 120 ft | 10 kts | 354° |
| 2026-04-26 19:31 | 41.42133 | 19.71556 | 116 ft | 9 kts | 354° |
| 2026-04-26 19:32 | 41.42195 | 19.71548 | 117 ft | 9 kts | 354° |
| 2026-04-26 19:32 | 41.42284 | 19.71536 | 116 ft | 17 kts | 354° |
| 2026-04-26 19:32 | 41.42414 | 19.71520 | 115 ft | 20 kts | 355° |
| 2026-04-26 19:32 | 41.42562 | 19.71501 | 112 ft | 19 kts | 355° |
| 2026-04-26 19:33 | 41.42648 | 19.71487 | 113 ft | 11 kts | 349° |
| 2026-04-26 19:33 | 41.42681 | 19.71483 | 115 ft | 2 kts | 9° |
| 2026-04-26 19:33 | 41.42685 | 19.71486 | 116 ft | 1 kts | 30° |
| 2026-04-26 19:33 | 41.42691 | 19.71507 | 113 ft | 5 kts | 83° |
| 2026-04-26 19:34 | 41.42674 | 19.71608 | 116 ft | 14 kts | 97° |
| 2026-04-26 19:34 | 41.42681 | 19.71726 | 114 ft | 12 kts | 84° |
| 2026-04-26 19:34 | 41.42688 | 19.71818 | 118 ft | 8 kts | 84° |
| 2026-04-26 19:34 | 41.42689 | 19.71879 | 120 ft | 5 kts | 110° |
| 2026-04-26 19:35 | 41.42663 | 19.71899 | 119 ft | 4 kts | 169° |
| 2026-04-26 19:35 | 41.42644 | 19.71902 | 118 ft | 0 kts | 174° |
| 2026-04-26 19:35 | 41.42611 | 19.71907 | 117 ft | 26 kts | 174° |
| 2026-04-26 19:35 | 41.42158 | 19.71968 | 120 ft | 99 kts | 175° |
| 2026-04-26 19:36 | 41.41273 | 19.72084 | 128 ft | 154 kts | 174° |
| 2026-04-26 19:36 | 41.40526 | 19.72192 | 362 ft | 162 kts | 174° |
| 2026-04-26 19:36 | 41.39071 | 19.72402 | 1349 ft | 156 kts | 174° |
| 2026-04-26 19:36 | 41.37982 | 19.72555 | 1907 ft | 162 kts | 174° |
| 2026-04-26 19:37 | 41.36813 | 19.72717 | 2310 ft | 176 kts | 174° |
| 2026-04-26 19:37 | 41.35562 | 19.72887 | 2794 ft | 184 kts | 174° |
| 2026-04-26 19:37 | 41.34284 | 19.73057 | 3414 ft | 185 kts | 174° |
| 2026-04-26 19:37 | 41.32963 | 19.73228 | 3858 ft | 198 kts | 174° |
| 2026-04-26 19:38 | 41.31547 | 19.73408 | 4284 ft | 211 kts | 174° |
| 2026-04-26 19:38 | 41.30023 | 19.73598 | 4676 ft | 230 kts | 174° |
| 2026-04-26 19:38 | 41.28386 | 19.73798 | 5267 ft | 239 kts | 174° |
| 2026-04-26 19:38 | 41.26734 | 19.73988 | 6150 ft | 236 kts | 176° |
| 2026-04-26 19:39 | 41.25144 | 19.73811 | 7029 ft | 232 kts | 196° |
| 2026-04-26 19:39 | 41.23753 | 19.72808 | 7875 ft | 226 kts | 222° |
| 2026-04-26 19:39 | 41.22756 | 19.71203 | 8598 ft | 226 kts | 239° |
| 2026-04-26 19:39 | 41.22144 | 19.69279 | 9195 ft | 232 kts | 256° |
| 2026-04-26 19:40 | 41.22011 | 19.67079 | 9591 ft | 249 kts | 278° |
| 2026-04-26 19:40 | 41.22580 | 19.64836 | 9972 ft | 267 kts | 302° |
| 2026-04-26 19:40 | 41.23842 | 19.62962 | 10399 ft | 281 kts | 325° |
| 2026-04-26 19:40 | 41.25665 | 19.61889 | 10763 ft | 298 kts | 349° |
| 2026-04-26 19:41 | 41.27760 | 19.61422 | 10997 ft | 321 kts | 351° |
| 2026-04-26 19:41 | 41.30030 | 19.60938 | 11397 ft | 336 kts | 351° |
| 2026-04-26 19:41 | 41.32360 | 19.60431 | 12074 ft | 342 kts | 351° |
| 2026-04-26 19:41 | 41.33955 | 19.60079 | 12572 ft | 345 kts | 350° |
| 2026-04-26 19:42 | 41.37109 | 19.59371 | 13547 ft | 350 kts | 350° |
| 2026-04-26 19:42 | 41.39520 | 19.58823 | 14240 ft | 353 kts | 349° |
| 2026-04-26 19:42 | 41.41953 | 19.58267 | 14890 ft | 356 kts | 349° |
| 2026-04-26 19:42 | 41.44405 | 19.57703 | 15543 ft | 359 kts | 349° |
| 2026-04-26 19:43 | 41.46877 | 19.57131 | 16197 ft | 362 kts | 348° |
| 2026-04-26 19:43 | 41.49333 | 19.56561 | 16842 ft | 365 kts | 348° |
| 2026-04-26 19:43 | 41.51843 | 19.55980 | 17480 ft | 368 kts | 348° |
| 2026-04-26 19:43 | 41.54375 | 19.55395 | 18123 ft | 371 kts | 348° |
| 2026-04-26 19:44 | 41.56927 | 19.54805 | 18708 ft | 374 kts | 348° |
| 2026-04-26 19:44 | 41.59496 | 19.54211 | 19256 ft | 376 kts | 348° |
| 2026-04-26 19:44 | 41.62085 | 19.53615 | 19800 ft | 379 kts | 348° |
| 2026-04-26 19:44 | 41.64696 | 19.53015 | 20349 ft | 382 kts | 348° |
| 2026-04-26 19:45 | 41.67323 | 19.52412 | 20895 ft | 385 kts | 348° |
| 2026-04-26 19:45 | 41.69938 | 19.51810 | 21436 ft | 388 kts | 348° |
| 2026-04-26 19:45 | 41.72605 | 19.51195 | 21972 ft | 390 kts | 348° |
| 2026-04-26 19:45 | 41.75291 | 19.50572 | 22510 ft | 393 kts | 348° |
| 2026-04-26 19:46 | 41.77999 | 19.49942 | 23049 ft | 396 kts | 348° |
| 2026-04-26 19:46 | 41.80724 | 19.49311 | 23560 ft | 399 kts | 348° |
| 2026-04-26 19:46 | 41.83470 | 19.48676 | 23984 ft | 402 kts | 348° |
| 2026-04-26 19:46 | 41.86236 | 19.48035 | 24401 ft | 405 kts | 348° |
| 2026-04-26 19:47 | 41.89019 | 19.47391 | 24813 ft | 407 kts | 348° |
| 2026-04-26 19:47 | 41.90868 | 19.46962 | 25079 ft | 409 kts | 348° |
| 2026-04-26 19:47 | 41.94593 | 19.46092 | 25593 ft | 412 kts | 348° |
| 2026-04-26 19:47 | 41.97408 | 19.45406 | 25965 ft | 414 kts | 346° |
| 2026-04-26 19:48 | 42.00160 | 19.44279 | 26331 ft | 415 kts | 339° |
| 2026-04-26 19:48 | 42.02888 | 19.42982 | 26711 ft | 417 kts | 339° |
| 2026-04-26 19:48 | 42.05630 | 19.41681 | 27089 ft | 419 kts | 339° |
| 2026-04-26 19:48 | 42.08387 | 19.40373 | 27454 ft | 421 kts | 339° |
| 2026-04-26 19:49 | 42.11154 | 19.39059 | 27813 ft | 423 kts | 339° |
| 2026-04-26 19:49 | 42.13940 | 19.37735 | 28172 ft | 425 kts | 339° |
| 2026-04-26 19:49 | 42.16737 | 19.36403 | 28520 ft | 427 kts | 339° |
| 2026-04-26 19:49 | 42.19510 | 19.35082 | 28850 ft | 429 kts | 339° |
| 2026-04-26 19:50 | 42.22331 | 19.33721 | 29181 ft | 431 kts | 337° |
| 2026-04-26 19:50 | 42.25045 | 19.31999 | 29495 ft | 432 kts | 332° |
| 2026-04-26 19:50 | 42.27734 | 19.30157 | 29821 ft | 434 kts | 332° |
| 2026-04-26 19:50 | 42.29362 | 19.29043 | 30006 ft | 435 kts | 332° |
| 2026-04-26 19:51 | 42.32069 | 19.27193 | 30287 ft | 437 kts | 332° |
| 2026-04-26 19:51 | 42.34790 | 19.25335 | 30531 ft | 439 kts | 332° |
| 2026-04-26 19:51 | 42.37517 | 19.23473 | 30762 ft | 440 kts | 332° |
| 2026-04-26 19:51 | 42.40259 | 19.21599 | 30996 ft | 442 kts | 332° |
| 2026-04-26 19:52 | 42.43009 | 19.19715 | 31218 ft | 444 kts | 332° |
| 2026-04-26 19:52 | 42.45731 | 19.17845 | 31430 ft | 446 kts | 332° |
| 2026-04-26 19:52 | 42.48499 | 19.15940 | 31654 ft | 447 kts | 332° |
| 2026-04-26 19:52 | 42.51266 | 19.14033 | 31962 ft | 446 kts | 332° |
| 2026-04-26 19:53 | 42.54028 | 19.12132 | 32267 ft | 445 kts | 332° |
| 2026-04-26 19:53 | 42.56782 | 19.10235 | 32569 ft | 444 kts | 332° |
| 2026-04-26 19:53 | 42.59539 | 19.08335 | 32865 ft | 444 kts | 332° |
| 2026-04-26 19:53 | 42.62288 | 19.06438 | 33169 ft | 443 kts | 332° |
| 2026-04-26 19:54 | 42.64998 | 19.04569 | 33475 ft | 443 kts | 332° |
| 2026-04-26 19:54 | 42.67741 | 19.02674 | 33795 ft | 442 kts | 332° |
| 2026-04-26 19:54 | 42.70478 | 19.00779 | 34063 ft | 442 kts | 332° |
| 2026-04-26 19:54 | 42.73195 | 18.98895 | 34123 ft | 432 kts | 332° |
| 2026-04-26 19:55 | 42.75821 | 18.97072 | 34127 ft | 415 kts | 332° |
| 2026-04-26 19:55 | 42.78343 | 18.95321 | 34130 ft | 399 kts | 332° |
| 2026-04-26 19:55 | 42.80769 | 18.93634 | 34131 ft | 384 kts | 332° |
| 2026-04-26 19:55 | 42.83105 | 18.92009 | 34133 ft | 372 kts | 331° |
| 2026-04-26 19:56 | 42.87673 | 18.88823 | 34139 ft | 367 kts | 331° |
| 2026-04-26 19:56 | 42.92215 | 18.85647 | 34145 ft | 376 kts | 331° |
| 2026-04-26 19:57 | 42.96986 | 18.82297 | 34150 ft | 395 kts | 331° |
| 2026-04-26 19:57 | 43.01976 | 18.78799 | 34152 ft | 411 kts | 332° |
| 2026-04-26 19:58 | 43.07158 | 18.75168 | 34151 ft | 424 kts | 332° |
| 2026-04-26 19:58 | 43.12395 | 18.71495 | 34152 ft | 427 kts | 332° |
| 2026-04-26 19:59 | 43.17678 | 18.67776 | 34152 ft | 427 kts | 331° |
| 2026-04-26 19:59 | 43.22956 | 18.64050 | 34157 ft | 427 kts | 331° |
| 2026-04-26 20:00 | 43.28231 | 18.60317 | 34150 ft | 427 kts | 332° |
| 2026-04-26 20:00 | 43.33472 | 18.56606 | 34154 ft | 427 kts | 331° |
| 2026-04-26 20:01 | 43.38749 | 18.52860 | 34166 ft | 427 kts | 332° |
| 2026-04-26 20:01 | 43.44019 | 18.49105 | 34163 ft | 426 kts | 331° |
| 2026-04-26 20:02 | 43.49284 | 18.45343 | 34169 ft | 426 kts | 331° |
| 2026-04-26 20:02 | 43.53661 | 18.42217 | 34177 ft | 426 kts | 331° |
| 2026-04-26 20:03 | 43.59776 | 18.37850 | 34179 ft | 426 kts | 331° |
| 2026-04-26 20:03 | 43.65030 | 18.34089 | 34184 ft | 426 kts | 331° |
| 2026-04-26 20:04 | 43.70299 | 18.30304 | 34185 ft | 426 kts | 331° |
| 2026-04-26 20:04 | 43.75557 | 18.26518 | 34191 ft | 426 kts | 331° |
| 2026-04-26 20:05 | 43.80780 | 18.22750 | 34193 ft | 426 kts | 331° |
| 2026-04-26 20:05 | 43.86035 | 18.18953 | 34189 ft | 426 kts | 331° |
| 2026-04-26 20:06 | 43.91292 | 18.15151 | 34193 ft | 426 kts | 331° |
| 2026-04-26 20:06 | 43.96542 | 18.11337 | 34190 ft | 426 kts | 331° |
| 2026-04-26 20:07 | 44.01751 | 18.07541 | 34186 ft | 425 kts | 331° |
| 2026-04-26 20:07 | 44.06993 | 18.03718 | 34177 ft | 425 kts | 331° |
| 2026-04-26 20:08 | 44.12235 | 17.99894 | 34192 ft | 425 kts | 330° |
| 2026-04-26 20:08 | 44.17470 | 17.96065 | 34186 ft | 425 kts | 330° |
| 2026-04-26 20:09 | 44.22700 | 17.92231 | 34200 ft | 424 kts | 330° |
| 2026-04-26 20:09 | 44.27886 | 17.88424 | 34194 ft | 424 kts | 330° |
| 2026-04-26 20:10 | 44.33103 | 17.84584 | 34196 ft | 423 kts | 330° |
| 2026-04-26 20:10 | 44.38311 | 17.80740 | 34188 ft | 423 kts | 330° |
| 2026-04-26 20:11 | 44.43517 | 17.76891 | 34186 ft | 423 kts | 330° |
| 2026-04-26 20:12 | 44.51291 | 17.71139 | 34185 ft | 423 kts | 330° |
| 2026-04-26 20:12 | 44.56498 | 17.67276 | 34188 ft | 423 kts | 330° |
| 2026-04-26 20:13 | 44.61698 | 17.63403 | 34197 ft | 423 kts | 330° |
| 2026-04-26 20:13 | 44.66903 | 17.59522 | 34200 ft | 423 kts | 330° |
| 2026-04-26 20:14 | 44.72062 | 17.55670 | 34200 ft | 423 kts | 330° |
| 2026-04-26 20:14 | 44.77251 | 17.51786 | 34210 ft | 422 kts | 330° |
| 2026-04-26 20:15 | 44.82429 | 17.47895 | 34217 ft | 422 kts | 330° |
| 2026-04-26 20:15 | 44.87600 | 17.43999 | 34213 ft | 421 kts | 330° |
| 2026-04-26 20:16 | 44.92735 | 17.40123 | 34218 ft | 421 kts | 330° |
| 2026-04-26 20:16 | 44.97900 | 17.36234 | 34228 ft | 421 kts | 330° |
| 2026-04-26 20:17 | 45.03057 | 17.32331 | 34222 ft | 420 kts | 330° |
| 2026-04-26 20:17 | 45.08214 | 17.28423 | 34219 ft | 420 kts | 330° |
| 2026-04-26 20:18 | 45.13328 | 17.24532 | 34214 ft | 420 kts | 329° |
| 2026-04-26 20:18 | 45.18483 | 17.20616 | 34210 ft | 420 kts | 329° |
| 2026-04-26 20:19 | 45.23636 | 17.16686 | 34207 ft | 420 kts | 329° |
| 2026-04-26 20:19 | 45.28780 | 17.12748 | 34207 ft | 420 kts | 329° |
| 2026-04-26 20:20 | 45.33889 | 17.08834 | 34208 ft | 420 kts | 329° |
| 2026-04-26 20:20 | 45.39026 | 17.04893 | 34221 ft | 419 kts | 329° |
| 2026-04-26 20:21 | 45.44147 | 17.00954 | 34229 ft | 418 kts | 329° |
| 2026-04-26 20:21 | 45.49256 | 16.97010 | 34226 ft | 417 kts | 329° |
| 2026-04-26 20:22 | 45.54349 | 16.93069 | 34230 ft | 416 kts | 329° |
| 2026-04-26 20:22 | 45.59405 | 16.89160 | 34231 ft | 416 kts | 329° |
| 2026-04-26 20:23 | 45.64487 | 16.85226 | 34233 ft | 415 kts | 329° |
| 2026-04-26 20:23 | 45.69562 | 16.81284 | 34230 ft | 415 kts | 329° |
| 2026-04-26 20:24 | 45.74631 | 16.77342 | 34228 ft | 415 kts | 329° |
| 2026-04-26 20:24 | 45.79663 | 16.73416 | 34227 ft | 415 kts | 329° |
| 2026-04-26 20:25 | 45.84731 | 16.69455 | 34227 ft | 415 kts | 329° |
| 2026-04-26 20:25 | 45.89804 | 16.65481 | 34227 ft | 415 kts | 329° |
| 2026-04-26 20:26 | 45.94877 | 16.61491 | 34222 ft | 416 kts | 329° |
| 2026-04-26 20:26 | 45.99957 | 16.57500 | 34227 ft | 416 kts | 329° |
| 2026-04-26 20:27 | 46.05004 | 16.53521 | 34229 ft | 417 kts | 329° |
| 2026-04-26 20:27 | 46.10082 | 16.49495 | 34229 ft | 417 kts | 329° |
| 2026-04-26 20:28 | 46.15160 | 16.45468 | 34235 ft | 416 kts | 329° |
| 2026-04-26 20:28 | 46.20235 | 16.41445 | 34236 ft | 416 kts | 328° |
| 2026-04-26 20:29 | 46.25270 | 16.37441 | 34241 ft | 416 kts | 328° |
| 2026-04-26 20:29 | 46.30335 | 16.33402 | 34245 ft | 416 kts | 328° |
| 2026-04-26 20:30 | 46.35399 | 16.29363 | 34252 ft | 416 kts | 330° |
| 2026-04-26 20:30 | 46.40893 | 16.26676 | 34255 ft | 422 kts | 347° |
| 2026-04-26 20:31 | 46.46656 | 16.25326 | 34263 ft | 422 kts | 347° |
| 2026-04-26 20:31 | 46.52449 | 16.23956 | 34268 ft | 422 kts | 347° |
| 2026-04-26 20:32 | 46.58338 | 16.22549 | 33009 ft | 438 kts | 347° |
| 2026-04-26 20:32 | 46.61332 | 16.21832 | 32478 ft | 431 kts | 347° |
| 2026-04-26 20:32 | 46.64262 | 16.21139 | 31995 ft | 424 kts | 347° |
| 2026-04-26 20:32 | 46.67157 | 16.20455 | 31443 ft | 419 kts | 347° |
| 2026-04-26 20:33 | 46.69984 | 16.19783 | 30912 ft | 415 kts | 347° |
| 2026-04-26 20:33 | 46.72819 | 16.19108 | 30381 ft | 411 kts | 347° |
| 2026-04-26 20:33 | 46.75625 | 16.18437 | 29799 ft | 407 kts | 347° |
| 2026-04-26 20:33 | 46.78398 | 16.17773 | 29288 ft | 401 kts | 347° |
| 2026-04-26 20:34 | 46.81140 | 16.17117 | 28768 ft | 397 kts | 347° |
| 2026-04-26 20:34 | 46.83848 | 16.16470 | 28266 ft | 392 kts | 347° |
| 2026-04-26 20:34 | 46.86524 | 16.15834 | 27776 ft | 388 kts | 347° |
| 2026-04-26 20:34 | 46.89175 | 16.15203 | 27292 ft | 384 kts | 347° |
| 2026-04-26 20:35 | 46.91802 | 16.14571 | 26829 ft | 381 kts | 347° |
| 2026-04-26 20:35 | 46.94370 | 16.13948 | 26383 ft | 378 kts | 347° |
| 2026-04-26 20:35 | 46.96948 | 16.13318 | 25919 ft | 375 kts | 347° |
| 2026-04-26 20:35 | 46.99519 | 16.12694 | 25462 ft | 373 kts | 347° |
| 2026-04-26 20:36 | 47.02072 | 16.12082 | 25019 ft | 371 kts | 347° |
| 2026-04-26 20:36 | 47.04607 | 16.11472 | 24549 ft | 368 kts | 347° |
| 2026-04-26 20:36 | 47.07130 | 16.10865 | 24105 ft | 366 kts | 347° |
| 2026-04-26 20:36 | 47.09643 | 16.10258 | 23596 ft | 366 kts | 347° |
| 2026-04-26 20:37 | 47.12142 | 16.09650 | 23118 ft | 363 kts | 347° |
| 2026-04-26 20:37 | 47.14622 | 16.09047 | 22643 ft | 360 kts | 347° |
| 2026-04-26 20:37 | 47.17052 | 16.08457 | 22184 ft | 358 kts | 347° |
| 2026-04-26 20:37 | 47.19500 | 16.07863 | 21706 ft | 356 kts | 347° |
| 2026-04-26 20:38 | 47.21938 | 16.07271 | 21231 ft | 354 kts | 347° |
| 2026-04-26 20:38 | 47.24366 | 16.06679 | 20756 ft | 353 kts | 348° |
| 2026-04-26 20:38 | 47.26784 | 16.06088 | 20271 ft | 352 kts | 348° |
| 2026-04-26 20:38 | 47.29198 | 16.05498 | 19801 ft | 351 kts | 348° |
| 2026-04-26 20:39 | 47.31604 | 16.04910 | 19330 ft | 350 kts | 348° |
| 2026-04-26 20:39 | 47.33195 | 16.04520 | 19015 ft | 350 kts | 348° |
| 2026-04-26 20:39 | 47.36406 | 16.04049 | 18360 ft | 352 kts | 0° |
| 2026-04-26 20:39 | 47.38833 | 16.04578 | 17855 ft | 354 kts | 13° |
| 2026-04-26 20:40 | 47.41173 | 16.05713 | 17366 ft | 354 kts | 16° |
| 2026-04-26 20:40 | 47.43498 | 16.06875 | 16874 ft | 352 kts | 16° |
| 2026-04-26 20:40 | 47.45817 | 16.08028 | 16382 ft | 351 kts | 15° |
| 2026-04-26 20:40 | 47.48132 | 16.09174 | 15898 ft | 350 kts | 15° |
| 2026-04-26 20:41 | 47.50438 | 16.10310 | 15416 ft | 349 kts | 15° |
| 2026-04-26 20:41 | 47.52738 | 16.11444 | 14932 ft | 348 kts | 15° |
| 2026-04-26 20:41 | 47.55034 | 16.12580 | 14445 ft | 347 kts | 15° |
| 2026-04-26 20:41 | 47.57281 | 16.13700 | 14054 ft | 344 kts | 15° |
| 2026-04-26 20:42 | 47.59536 | 16.14829 | 13487 ft | 342 kts | 15° |
| 2026-04-26 20:42 | 47.61782 | 16.15951 | 13026 ft | 339 kts | 15° |
| 2026-04-26 20:42 | 47.64013 | 16.17064 | 12518 ft | 338 kts | 14° |
| 2026-04-26 20:42 | 47.66231 | 16.18168 | 12049 ft | 334 kts | 14° |
| 2026-04-26 20:43 | 47.68424 | 16.19263 | 11586 ft | 330 kts | 14° |
| 2026-04-26 20:43 | 47.70542 | 16.20329 | 11138 ft | 315 kts | 14° |
| 2026-04-26 20:43 | 47.72594 | 16.21365 | 10712 ft | 309 kts | 13° |
| 2026-04-26 20:43 | 47.74577 | 16.22364 | 10340 ft | 298 kts | 13° |
| 2026-04-26 20:44 | 47.76444 | 16.23577 | 9861 ft | 292 kts | 26° |
| 2026-04-26 20:44 | 47.78028 | 16.25438 | 9609 ft | 293 kts | 40° |
| 2026-04-26 20:44 | 47.79469 | 16.27594 | 9362 ft | 295 kts | 40° |
| 2026-04-26 20:44 | 47.80424 | 16.29019 | 9050 ft | 292 kts | 40° |
| 2026-04-26 20:45 | 47.81047 | 16.29947 | 8858 ft | 291 kts | 40° |
| 2026-04-26 20:45 | 47.82486 | 16.32093 | 8401 ft | 292 kts | 40° |
| 2026-04-26 20:45 | 47.83912 | 16.34226 | 7957 ft | 292 kts | 41° |
| 2026-04-26 20:45 | 47.85312 | 16.36321 | 7652 ft | 287 kts | 41° |
| 2026-04-26 20:46 | 47.86712 | 16.38422 | 7246 ft | 285 kts | 41° |
| 2026-04-26 20:46 | 47.88099 | 16.40508 | 6973 ft | 278 kts | 41° |
| 2026-04-26 20:46 | 47.89406 | 16.42481 | 6833 ft | 258 kts | 41° |
| 2026-04-26 20:46 | 47.90642 | 16.44344 | 6438 ft | 249 kts | 41° |
| 2026-04-26 20:47 | 47.91852 | 16.46160 | 5954 ft | 245 kts | 42° |
| 2026-04-26 20:47 | 47.92643 | 16.47345 | 5622 ft | 242 kts | 43° |
| 2026-04-26 20:47 | 47.94164 | 16.49626 | 5355 ft | 222 kts | 43° |
| 2026-04-26 20:47 | 47.95240 | 16.51243 | 4798 ft | 226 kts | 44° |
| 2026-04-26 20:48 | 47.96357 | 16.52924 | 4177 ft | 230 kts | 44° |
| 2026-04-26 20:48 | 47.97480 | 16.54611 | 3670 ft | 227 kts | 45° |
| 2026-04-26 20:48 | 47.98588 | 16.56278 | 3168 ft | 225 kts | 45° |
| 2026-04-26 20:48 | 47.99675 | 16.57915 | 2775 ft | 218 kts | 45° |
| 2026-04-26 20:49 | 48.00715 | 16.59489 | 2555 ft | 203 kts | 45° |
| 2026-04-26 20:49 | 48.01669 | 16.60938 | 2603 ft | 188 kts | 45° |
| 2026-04-26 20:49 | 48.02523 | 16.62234 | 2638 ft | 163 kts | 45° |
| 2026-04-26 20:49 | 48.03265 | 16.63360 | 2637 ft | 144 kts | 45° |
| 2026-04-26 20:50 | 48.03947 | 16.64392 | 2635 ft | 137 kts | 45° |
| 2026-04-26 20:50 | 48.04601 | 16.65380 | 2634 ft | 134 kts | 45° |
| 2026-04-26 20:50 | 48.05257 | 16.66359 | 2631 ft | 132 kts | 40° |
| 2026-04-26 20:50 | 48.06051 | 16.67001 | 2387 ft | 131 kts | 16° |
| 2026-04-26 20:51 | 48.06963 | 16.67043 | 2115 ft | 133 kts | 349° |
| 2026-04-26 20:51 | 48.07801 | 16.66445 | 1961 ft | 137 kts | 323° |
| 2026-04-26 20:51 | 48.08377 | 16.65300 | 1803 ft | 140 kts | 298° |
| 2026-04-26 20:51 | 48.08805 | 16.63987 | 1617 ft | 140 kts | 298° |
| 2026-04-26 20:52 | 48.09233 | 16.62678 | 1423 ft | 140 kts | 297° |
| 2026-04-26 20:52 | 48.09653 | 16.61395 | 1230 ft | 138 kts | 297° |
| 2026-04-26 20:52 | 48.10069 | 16.60108 | 1039 ft | 137 kts | 296° |
| 2026-04-26 20:52 | 48.10490 | 16.58839 | 845 ft | 136 kts | 295° |
| 2026-04-26 20:53 | 48.10899 | 16.57571 | 662 ft | 135 kts | 297° |
| 2026-04-26 20:53 | 48.11280 | 16.56426 | 605 ft | 101 kts | 295° |
| 2026-04-26 20:53 | 48.11513 | 16.55706 | 605 ft | 58 kts | 296° |
| 2026-04-26 20:53 | 48.11643 | 16.55372 | 597 ft | 30 kts | 313° |
| 2026-04-26 20:54 | 48.11740 | 16.55232 | 594 ft | 13 kts | 317° |
| 2026-04-26 20:54 | 48.11804 | 16.55151 | 594 ft | 8 kts | 334° |
| 2026-04-26 20:54 | 48.11849 | 16.55142 | 594 ft | 6 kts | 356° |
| 2026-04-26 20:54 | 48.11879 | 16.55154 | 595 ft | 4 kts | 25° |
| 2026-04-26 20:55 | 48.11909 | 16.55175 | 595 ft | 10 kts | 25° |
| 2026-04-26 20:55 | 48.11943 | 16.55260 | 594 ft | 10 kts | 102° |
| 2026-04-26 20:55 | 48.11918 | 16.55344 | 594 ft | 8 kts | 117° |
| 2026-04-26 20:55 | 48.11895 | 16.55410 | 595 ft | 6 kts | 116° |
| 2026-04-26 20:56 | 48.11883 | 16.55467 | 595 ft | 5 kts | 101° |
| 2026-04-26 20:56 | 48.11874 | 16.55515 | 595 ft | 6 kts | 112° |
| 2026-04-26 20:56 | 48.11849 | 16.55592 | 597 ft | 7 kts | 116° |
| 2026-04-26 20:56 | 48.11842 | 16.55615 | 598 ft | 2 kts | 116° |
| 2026-04-26 20:57 | 48.11839 | 16.55625 | 598 ft | 1 kts | 115° |
| 2026-04-26 20:57 | 48.11837 | 16.55645 | 598 ft | 0 kts | 84° |
| 2026-04-26 20:57 | 48.11850 | 16.55661 | 598 ft | 4 kts | 27° |
| 2026-04-26 20:57 | 48.11879 | 16.55679 | 598 ft | 5 kts | 24° |
| 2026-04-26 20:58 | 48.11883 | 16.55682 | 597 ft | 0 kts | 24° |